Barcelona, Spain

10:13 PM CEST on August 24, 2016 (GMT +0200)
Avenida doctor Gallart i Mones, | | Change Station

Elev 13 ft 41.32 °N, 2.09 °E | Updated 38 seconds ago

Clear
Clear
78.3 °F
Feels Like 80 °F
N
0.0
Wind Variable Wind from SE
Gusts 0.0 mph

Today
High -- | Low -- °F
--% Chance of Precip.
Yesterday
High -- | Low -- °F
Precip. -- in
Pressure 30.06 in
Visibility -9999.0 miles
Clouds
Heat Index 80 °F
Dew Point 64 °F
Humidity 62%
Rainfall 0.00 in
Snow Depth Not available.
7:10 AM 8:36 PM
Waning Gibbous, 54% visible
METAR LEBL 242000Z 00000KT CAVOK 25/18 Q1018 NOSIG
Pressure 30.06 in
Visibility -9999.0 miles
Clouds
Heat Index 80 °F
Dew Point 64 °F
Humidity 62%
Rainfall 0.00 in
Snow Depth Not available.
7:10 AM 8:36 PM
Waning Gibbous, 54% visible
METAR LEBL 242000Z 00000KT CAVOK 25/18 Q1018 NOSIG

10-Day Weather Forecast

×

Almanac

Astronomy

Aug. 24, 2016 Rise Set
Actual Time
Civil Twilight
Nautical Twilight
Astronomical Twilight
Moon
Length of Visible Light
Length of Day
Tomorrow will be .
, % of the Moon is Illuminated

Today's Extremes

Country Highs Country Lows

Community

WunderPhotos

Upload Photos

1,934,699 photos uploaded!

WunderBlog® & News

Nearby

Air Quality

  Air Quality AQ Index Pollutant
Not available.

Snow Depth

Station Depth Elevation

Earthquake Activity

City Distance Mag. Time & Date
Minimum magnitude displayed is 2.5.

Coastal Water Temperatures

Place Temperature

Stations

Nearby Weather Stations

Station Location Temp. Windchill Dew Point Humidity Wind Precip. Elev Updated Type